Friday, May 25, 2018, 8:30 PM EDT
Back to Local

KCDW, Caldwell Essex County Airport

Location: Fairfield, NJ, United States Lat: 40.883
Local Time: 8:30 PM EDT ( 0:30 GMT) Lon: -74.283
Time Zone: US/Eastern Elev: 173 ft

Show me the last for .
Show Decoded

2018-05-25 19:53 METAR KCDW 252353Z VRB04KT 10SM CLR 28/14 A2983 RMK AO2 SLP105 T02830139 10311
                 20283 55005 =
2018-05-25 18:53 METAR KCDW 252253Z 25007G16KT 210V290 10SM CLR 30/12 A2982 RMK AO2 SLP103
                 T03000117 =
2018-05-25 17:53 METAR KCDW 252153Z 28011G16KT 10SM CLR 31/09 A2983 RMK AO2 SLP105 T03110094 =
2018-05-25 16:53 METAR KCDW 252053Z 28009G15KT 10SM CLR 31/11 A2984 RMK AO2 SLP110 T03060106
                 58025 =
2018-05-25 15:53 METAR KCDW 251953Z 25007KT 220V290 10SM CLR 30/12 A2987 RMK AO2 SLP118 T03000122
                 =
2018-05-25 14:53 METAR KCDW 251853Z 25008KT 220V310 10SM CLR 30/11 A2990 RMK AO2 SLP127 T03000106
                 =
2018-05-25 13:53 METAR KCDW 251753Z 24008G20KT 210V290 10SM CLR 29/10 A2992 RMK AO2 SLP135
                 T02940100 10300 20200 58023 =
2018-05-25 12:53 METAR KCDW 251653Z VRB06KT 10SM CLR 29/09 A2994 RMK AO2 SLP141 T02940089 =
2018-05-25 11:53 METAR KCDW 251553Z 22007G15KT 200V260 10SM CLR 29/11 A2997 RMK AO2 SLP152
                 T02890106 =
2018-05-25 10:53 METAR KCDW 251453Z VRB05KT 10SM CLR 28/10 A2999 RMK AO2 SLP158 T02780100 58022 =
2018-05-25 09:53 METAR KCDW 251353Z VRB04KT 10SM CLR 26/11 A3001 RMK AO2 SLP167 T02610106 =
2018-05-25 08:53 METAR KCDW 251253Z 25004KT 10SM CLR 23/12 A3003 RMK AO2 SLP173 T02280117 =
2018-05-25 07:53 METAR KCDW 251153Z VRB04KT 10SM CLR 20/11 A3005 RMK AO2 SLP180 T02000111 10200
                 20167 58001 =
2018-05-25 06:53 METAR KCDW 251053Z 00000KT 10SM CLR 18/11 A3006 RMK AO2 SLP182 T01830111 =
2018-05-25 05:53 METAR KCDW 250953Z AUTO 00000KT 10SM CLR 17/11 A3006 RMK AO2 SLP185 T01670111 =
2018-05-25 04:53 METAR KCDW 250853Z AUTO 00000KT 10SM CLR 17/11 A3005 RMK AO2 SLP181 T01720106
                 56008 =
2018-05-25 03:53 METAR KCDW 250753Z AUTO 00000KT 10SM CLR 17/11 A3006 RMK AO2 SLP183 T01720106 =
2018-05-25 02:53 METAR KCDW 250653Z AUTO 22003KT 10SM CLR 18/10 A3006 RMK AO2 SLP184 T01780100 =
2018-05-25 01:53 METAR KCDW 250553Z AUTO 00000KT 10SM CLR 19/09 A3008 RMK AO2 SLP190 T01890094
                 10267 20189 58002 =
2018-05-25 00:53 METAR KCDW 250453Z AUTO VRB03KT 10SM CLR 19/09 A3009 RMK AO2 SLP193 T01890089
                 403000128 =
2018-05-24 23:53 METAR KCDW 250353Z AUTO 22003KT 10SM CLR 20/09 A3009 RMK AO2 SLP194 T02000089 =
2018-05-24 22:53 METAR KCDW 250253Z 00000KT 10SM CLR 22/09 A3009 RMK AO2 SLP192 T02170089 51010 =
2018-05-24 21:53 METAR KCDW 250153Z 19004KT 10SM CLR 22/09 A3008 RMK AO2 SLP191 T02170094 =
2018-05-24 20:53 METAR KCDW 250053Z 00000KT 10SM CLR 25/08 A3007 RMK AO2 SLP185 T02500078 =

Support USWX by starting your Amazon purchase here.